Time;durP1;ratioP1;P1;durP2;ratioP2;P2;SDS_P1;SDS_P2;PMS_P1;PMS_P2;Temp;Humidity;BMP_temperature;BMP_pressure;BME280_temperature;BME280_humidity;BME280_pressure;Samples;Min_cycle;Max_cycle;Signal;HPM_P1;HPM_P2
2022/10/01 00:00:50;;;;;;;60.38;57.13;;;15.90;96.50;;;;;;4970987;28;20031;-80
2022/10/01 00:03:16;;;;;;;67.13;63.17;;;15.90;96.60;;;;;;4951346;28;20393;-81
2022/10/01 00:05:42;;;;;;;72.65;68.82;;;15.90;96.60;;;;;;4955834;28;20035;-80
2022/10/01 00:08:08;;;;;;;72.55;68.53;;;15.80;96.90;;;;;;4956158;28;20468;-80
2022/10/01 00:10:35;;;;;;;98.15;93.13;;;15.80;96.90;;;;;;4955029;29;20043;-81
2022/10/01 00:13:02;;;;;;;91.72;87.07;;;15.90;96.80;;;;;;4960364;28;20050;-81
2022/10/01 00:15:28;;;;;;;107.20;101.65;;;15.90;97.10;;;;;;4948170;28;20729;-81
2022/10/01 00:17:54;;;;;;;81.43;76.93;;;15.80;97.70;;;;;;4952023;28;20468;-80
2022/10/01 00:20:21;;;;;;;94.82;89.97;;;15.80;97.50;;;;;;4952208;28;20035;-81
2022/10/01 00:22:47;;;;;;;89.72;85.07;;;15.80;97.50;;;;;;4943959;29;20046;-80
2022/10/01 00:25:13;;;;;;;92.70;87.88;;;15.80;97.70;;;;;;4967396;28;20456;-80
2022/10/01 00:27:39;;;;;;;102.45;97.10;;;15.80;97.60;;;;;;4955734;28;20046;-81
2022/10/01 00:30:06;;;;;;;90.38;85.72;;;15.90;97.50;;;;;;4954393;28;20038;-81
2022/10/01 00:32:32;;;;;;;98.50;93.18;;;15.90;97.40;;;;;;4964078;28;20066;-80
2022/10/01 00:34:59;;;;;;;77.32;73.03;;;15.90;97.50;;;;;;4954216;29;20027;-80
2022/10/01 00:37:25;;;;;;;72.15;68.38;;;15.90;97.80;;;;;;4954928;29;20039;-80
2022/10/01 00:39:51;;;;;;;59.45;56.40;;;15.90;97.70;;;;;;4939334;29;20047;-80
2022/10/01 00:42:19;;;;;;;51.05;48.33;;;15.90;97.90;;;;;;4940633;29;20047;-80
2022/10/01 00:44:45;;;;;;;40.70;38.50;;;15.90;97.90;;;;;;4954000;28;20050;-80
2022/10/01 00:47:41;;;;;;;39.92;37.85;;;15.90;97.90;;;;;;4967926;28;20084;-80
2022/10/01 00:50:19;;;;;;;44.90;42.65;;;15.90;98.00;;;;;;4944933;28;20576;-80
2022/10/01 00:52:49;;;;;;;46.50;44.08;;;15.90;98.20;;;;;;4970026;28;20030;-80
2022/10/01 00:55:17;;;;;;;44.25;41.80;;;16.00;98.20;;;;;;4969316;28;20119;-80
2022/10/01 00:57:44;;;;;;;29.20;27.55;;;16.00;98.10;;;;;;4970359;28;20476;-80
2022/10/01 01:00:12;;;;;;;22.85;21.45;;;16.00;98.10;;;;;;4968197;28;20090;-80
2022/10/01 01:02:38;;;;;;;27.83;26.25;;;16.00;98.30;;;;;;4965328;28;20043;-80
2022/10/01 01:05:04;;;;;;;33.60;31.77;;;16.00;98.50;;;;;;4936290;29;20058;-80
2022/10/01 01:07:31;;;;;;;34.28;32.50;;;16.00;98.60;;;;;;4948368;29;20035;-80
2022/10/01 01:09:57;;;;;;;31.38;29.70;;;16.10;98.80;;;;;;4966789;28;20035;-80
2022/10/01 01:13:11;;;;;;;30.35;28.80;;;16.10;98.80;;;;;;4945725;28;20039;-80
2022/10/01 01:16:01;;;;;;;37.17;35.17;;;16.10;98.80;;;;;;4941481;28;20392;-80
2022/10/01 01:18:46;;;;;;;28.30;26.83;;;16.10;99.10;;;;;;4930006;29;20409;-80
2022/10/01 01:21:27;;;;;;;30.13;28.63;;;16.10;99.10;;;;;;4942541;29;20040;-80
2022/10/01 01:24:26;;;;;;;33.10;31.48;;;16.10;99.40;;;;;;4941134;29;20399;-81
2022/10/01 01:27:12;;;;;;;35.10;33.28;;;16.10;99.30;;;;;;4947385;28;20369;-81
2022/10/01 01:30:02;;;;;;;30.98;29.23;;;16.20;99.10;;;;;;4964901;28;20040;-80
2022/10/01 01:32:48;;;;;;;31.15;29.55;;;16.20;99.70;;;;;;4940133;28;20405;-81
2022/10/01 01:35:38;;;;;;;29.08;27.67;;;16.20;99.90;;;;;;4967696;28;20046;-81
2022/10/01 01:38:08;;;;;;;27.27;25.85;;;16.20;99.90;;;;;;4942625;29;20385;-81
2022/10/01 01:40:35;;;;;;;24.35;22.85;;;16.20;99.90;;;;;;4953662;28;20038;-81
2022/10/01 01:43:04;;;;;;;27.63;26.02;;;16.20;99.90;;;;;;4936961;28;20504;-81
2022/10/01 01:45:30;;;;;;;30.70;29.17;;;16.20;99.90;;;;;;4968741;28;20039;-81
2022/10/01 01:47:56;;;;;;;32.33;30.33;;;16.30;99.90;;;;;;4952709;29;20157;-81
2022/10/01 01:50:24;;;;;;;26.52;25.23;;;16.30;99.90;;;;;;4950363;28;20542;-81
2022/10/01 01:52:53;;;;;;;28.65;27.15;;;16.30;99.90;;;;;;4952442;28;20031;-82
2022/10/01 01:55:23;;;;;;;49.65;47.08;;;16.30;99.90;;;;;;4954021;28;20031;-81
2022/10/01 01:57:50;;;;;;;26.10;24.80;;;16.40;99.90;;;;;;4969230;28;20035;-82
2022/10/01 02:00:16;;;;;;;22.60;21.10;;;16.30;99.90;;;;;;4965131;28;20050;-82
2022/10/01 02:02:45;;;;;;;26.13;24.60;;;16.40;99.90;;;;;;4940669;29;20052;-81
2022/10/01 02:05:14;;;;;;;20.75;19.63;;;16.40;99.90;;;;;;4943032;29;20083;-82
2022/10/01 02:08:06;;;;;;;23.52;22.23;;;16.50;99.90;;;;;;4942922;28;20031;-82
2022/10/01 02:10:58;;;;;;;21.88;20.58;;;16.50;99.90;;;;;;4924356;29;20531;-82
2022/10/01 02:13:34;;;;;;;27.65;26.15;;;16.40;99.90;;;;;;4929956;29;20047;-82
2022/10/01 02:16:13;;;;;;;26.45;24.88;;;16.40;99.90;;;;;;4946618;28;20497;-81
2022/10/01 02:18:54;;;;;;;28.27;26.75;;;16.40;99.90;;;;;;4931113;29;20035;-82
2022/10/01 02:22:16;;;;;;;24.88;23.58;;;16.50;99.90;;;;;;4939798;28;20083;-82
2022/10/01 02:24:44;;;;;;;23.30;21.92;;;16.40;99.90;;;;;;4935555;28;20070;-82
2022/10/01 02:27:38;;;;;;;21.92;20.52;;;16.40;99.90;;;;;;4936243;29;20128;-82
2022/10/01 02:30:09;;;;;;;25.40;23.80;;;16.40;99.90;;;;;;4892677;29;20093;-82
2022/10/01 02:32:36;;;;;;;23.20;21.98;;;16.40;99.90;;;;;;4907995;29;20055;-81
2022/10/01 02:35:03;;;;;;;23.05;21.75;;;16.50;99.90;;;;;;4911215;29;20040;-82
2022/10/01 02:37:29;;;;;;;21.98;20.88;;;16.40;99.90;;;;;;4904752;29;20030;-81
2022/10/01 02:39:55;;;;;;;22.42;21.02;;;16.40;99.90;;;;;;4916749;29;20421;-81
2022/10/01 02:42:22;;;;;;;24.67;22.98;;;16.40;99.90;;;;;;4909812;29;20067;-81
2022/10/01 02:44:49;;;;;;;25.38;23.88;;;16.50;99.90;;;;;;4932869;29;20048;-81
2022/10/01 02:47:20;;;;;;;24.98;23.65;;;16.50;99.90;;;;;;4889518;29;20034;-81
2022/10/01 02:49:46;;;;;;;25.90;24.50;;;16.50;99.90;;;;;;4854500;29;20041;-81
2022/10/01 02:52:37;;;;;;;26.17;24.70;;;16.50;99.90;;;;;;4843782;29;20034;-81
2022/10/01 02:55:14;;;;;;;25.95;24.33;;;16.60;99.90;;;;;;4851615;29;20049;-81
2022/10/01 02:57:40;;;;;;;25.80;24.50;;;16.60;99.90;;;;;;4853504;29;20029;-81
2022/10/01 03:00:09;;;;;;;28.38;26.77;;;16.60;99.90;;;;;;4928582;28;20044;-81
2022/10/01 03:02:35;;;;;;;29.83;28.40;;;16.60;99.90;;;;;;4912217;29;20136;-81
2022/10/01 03:05:01;;;;;;;36.25;34.22;;;16.70;99.90;;;;;;4913380;29;20044;-81
2022/10/01 03:07:29;;;;;;;31.38;29.65;;;16.70;99.90;;;;;;4934195;28;20063;-81
2022/10/01 03:09:55;;;;;;;40.35;37.95;;;16.70;99.90;;;;;;4933463;29;20032;-81
2022/10/01 03:12:22;;;;;;;36.78;34.88;;;16.80;99.90;;;;;;4942824;28;20039;-81
2022/10/01 03:14:48;;;;;;;38.30;36.38;;;16.80;99.90;;;;;;4964809;28;20532;-81
2022/10/01 03:17:14;;;;;;;36.53;34.47;;;16.80;99.90;;;;;;4933954;28;20039;-81
2022/10/01 03:19:41;;;;;;;39.50;37.60;;;16.80;99.90;;;;;;4956036;28;20054;-81
2022/10/01 03:22:08;;;;;;;40.35;38.33;;;16.80;99.90;;;;;;4953837;28;20031;-80
2022/10/01 03:24:34;;;;;;;43.63;41.33;;;16.80;99.90;;;;;;4956122;29;20047;-81
2022/10/01 03:27:00;;;;;;;42.08;39.90;;;16.80;99.90;;;;;;4957098;28;20035;-81
2022/10/01 03:29:26;;;;;;;38.45;36.60;;;16.80;99.90;;;;;;4971199;28;20467;-81
2022/10/01 03:31:52;;;;;;;38.40;36.45;;;16.80;99.90;;;;;;4955053;28;20039;-81
2022/10/01 03:34:18;;;;;;;50.08;47.58;;;16.80;99.90;;;;;;4955237;28;20050;-80
2022/10/01 03:36:45;;;;;;;44.13;42.00;;;16.80;99.90;;;;;;4956054;28;20031;-81
2022/10/01 03:39:12;;;;;;;46.25;43.90;;;16.90;99.90;;;;;;4963582;28;20018;-81
2022/10/01 03:41:38;;;;;;;47.22;44.85;;;16.90;99.90;;;;;;4962386;28;20038;-81
2022/10/01 03:44:04;;;;;;;47.28;45.03;;;16.90;99.90;;;;;;4962553;28;20384;-81
2022/10/01 03:46:30;;;;;;;42.65;40.63;;;16.90;99.90;;;;;;4936810;28;20047;-82
2022/10/01 03:48:59;;;;;;;44.78;42.35;;;16.90;99.90;;;;;;4940337;28;20036;-80
2022/10/01 03:51:27;;;;;;;43.85;41.72;;;16.90;99.90;;;;;;4940302;29;20031;-81
2022/10/01 03:53:54;;;;;;;48.53;46.25;;;16.90;99.90;;;;;;4955539;28;20035;-81
2022/10/01 03:56:20;;;;;;;50.25;47.83;;;16.90;99.90;;;;;;4941402;29;20031;-81
2022/10/01 03:58:46;;;;;;;47.90;45.60;;;16.90;99.90;;;;;;4942988;28;20039;-81
2022/10/01 04:01:12;;;;;;;51.30;48.78;;;17.00;99.90;;;;;;4940862;28;20492;-81
2022/10/01 04:03:39;;;;;;;53.03;50.47;;;17.00;99.90;;;;;;4939084;28;20050;-81
2022/10/01 04:06:05;;;;;;;55.35;52.70;;;17.00;99.90;;;;;;4956236;28;20039;-81
2022/10/01 04:08:31;;;;;;;52.00;49.53;;;17.00;99.90;;;;;;4941981;28;20042;-81
2022/10/01 04:10:59;;;;;;;59.85;56.85;;;17.00;99.90;;;;;;4940695;28;20047;-80
2022/10/01 04:13:26;;;;;;;58.90;56.00;;;17.00;99.90;;;;;;4955002;28;20043;-80
2022/10/01 04:15:52;;;;;;;61.05;58.05;;;17.00;99.90;;;;;;4953401;28;20036;-81
2022/10/01 04:18:20;;;;;;;61.08;58.17;;;17.00;99.90;;;;;;4940375;28;20035;-80
2022/10/01 04:20:46;;;;;;;59.83;56.92;;;17.00;99.90;;;;;;4939764;28;20023;-80
2022/10/01 04:23:13;;;;;;;65.65;62.28;;;17.10;99.90;;;;;;4939354;29;20054;-80
2022/10/01 04:25:39;;;;;;;65.70;62.40;;;17.10;99.90;;;;;;4941585;29;20031;-80
2022/10/01 04:28:06;;;;;;;70.55;67.05;;;17.10;99.90;;;;;;4930970;29;20397;-80
2022/10/01 04:30:34;;;;;;;68.28;64.93;;;17.10;99.90;;;;;;4921468;28;20396;-80
2022/10/01 04:33:00;;;;;;;74.70;70.78;;;17.10;99.90;;;;;;4955436;28;20062;-80
2022/10/01 04:35:27;;;;;;;96.75;92.07;;;17.10;99.90;;;;;;4939701;29;20046;-80
2022/10/01 04:37:57;;;;;;;78.38;74.57;;;17.10;99.90;;;;;;4936790;29;20035;-80
2022/10/01 04:40:24;;;;;;;85.07;80.93;;;17.10;99.90;;;;;;4946434;28;20043;-80
2022/10/01 04:42:50;;;;;;;75.53;71.63;;;17.10;99.90;;;;;;4928618;29;20039;-80
2022/10/01 04:45:17;;;;;;;95.13;90.45;;;17.10;99.90;;;;;;4924495;28;20500;-80
2022/10/01 04:47:47;;;;;;;88.90;84.40;;;17.10;99.90;;;;;;4939877;28;20041;-80
2022/10/01 04:50:15;;;;;;;99.53;94.53;;;17.10;99.90;;;;;;4924308;28;20032;-80
2022/10/01 04:52:41;;;;;;;79.07;75.22;;;17.20;99.90;;;;;;4931396;29;20027;-81
2022/10/01 04:55:07;;;;;;;78.75;74.82;;;17.20;99.90;;;;;;4961665;28;20043;-80
2022/10/01 04:57:34;;;;;;;61.50;58.50;;;17.20;99.90;;;;;;4961362;28;20632;-80
2022/10/01 05:00:01;;;;;;;65.28;61.90;;;17.20;99.90;;;;;;4955434;28;20035;-80
2022/10/01 05:02:28;;;;;;;70.25;66.32;;;17.20;99.90;;;;;;4962253;28;20043;-80
2022/10/01 05:04:54;;;;;;;57.85;54.92;;;17.30;99.90;;;;;;4969277;28;20044;-80
2022/10/01 05:07:21;;;;;;;92.72;88.07;;;17.30;99.90;;;;;;4956710;28;20206;-82
2022/10/01 05:09:47;;;;;;;43.85;41.30;;;17.20;99.90;;;;;;4952243;28;20035;-80
2022/10/01 05:12:13;;;;;;;41.42;38.75;;;17.30;99.90;;;;;;4951097;28;20093;-80
2022/10/01 05:14:39;;;;;;;38.30;36.08;;;17.20;99.90;;;;;;4939916;29;20042;-81
2022/10/01 05:17:06;;;;;;;35.53;33.55;;;17.30;99.90;;;;;;4966702;28;20492;-79
2022/10/01 05:19:32;;;;;;;33.78;31.77;;;17.20;99.90;;;;;;4937081;29;20381;-79
2022/10/01 05:21:58;;;;;;;35.28;33.22;;;17.30;99.90;;;;;;4935855;29;20605;-79
2022/10/01 05:24:25;;;;;;;34.63;32.42;;;17.30;99.90;;;;;;4950422;29;20047;-79
2022/10/01 05:26:52;;;;;;;36.53;34.28;;;17.30;99.90;;;;;;4956073;28;20503;-80
2022/10/01 05:29:19;;;;;;;35.90;33.60;;;17.30;99.90;;;;;;4969088;28;20393;-80
2022/10/01 05:31:46;;;;;;;38.35;35.55;;;17.30;99.90;;;;;;4968906;28;20055;-79
2022/10/01 05:34:13;;;;;;;37.22;35.03;;;17.30;99.90;;;;;;4959350;28;20031;-80
2022/10/01 05:36:39;;;;;;;37.17;34.80;;;17.30;99.90;;;;;;4950357;28;20469;-80
2022/10/01 05:39:05;;;;;;;40.95;38.25;;;17.40;99.90;;;;;;4962208;28;20079;-80
2022/10/01 05:41:31;;;;;;;44.53;41.85;;;17.40;99.90;;;;;;4965555;28;20389;-80
2022/10/01 05:43:57;;;;;;;46.75;43.92;;;17.40;99.90;;;;;;4953388;29;20059;-80
2022/10/01 05:46:23;;;;;;;50.58;47.35;;;17.40;99.90;;;;;;4964657;28;20051;-80
2022/10/01 05:48:50;;;;;;;49.65;46.25;;;17.40;99.90;;;;;;4938971;29;20040;-80
2022/10/01 05:51:16;;;;;;;50.25;47.30;;;17.40;99.90;;;;;;4948929;29;20043;-81
2022/10/01 05:53:42;;;;;;;55.42;52.22;;;17.40;99.90;;;;;;4918576;29;20048;-81
2022/10/01 05:56:09;;;;;;;64.22;60.60;;;17.40;99.90;;;;;;4947452;28;20400;-81
2022/10/01 05:58:35;;;;;;;66.53;62.53;;;17.40;99.90;;;;;;4953906;29;20038;-79
2022/10/01 06:01:02;;;;;;;69.15;65.25;;;17.50;99.90;;;;;;4962980;28;20036;-78
2022/10/01 06:03:28;;;;;;;74.78;70.72;;;17.50;99.90;;;;;;4962486;28;20043;-79
2022/10/01 06:05:55;;;;;;;72.15;68.28;;;17.50;99.90;;;;;;4954435;29;20365;-78
2022/10/01 06:08:21;;;;;;;70.93;66.75;;;17.50;99.90;;;;;;4953511;28;20039;-80
2022/10/01 06:10:47;;;;;;;80.20;75.85;;;17.60;99.90;;;;;;4951230;28;20035;-79
2022/10/01 06:13:16;;;;;;;79.03;73.90;;;17.60;99.90;;;;;;4969294;28;20503;-78
2022/10/01 06:15:43;;;;;;;74.75;70.38;;;17.50;99.90;;;;;;4954023;28;20034;-78
2022/10/01 06:18:10;;;;;;;69.13;65.47;;;17.50;99.90;;;;;;4949627;28;20276;-78
2022/10/01 06:20:37;;;;;;;71.57;67.65;;;17.50;99.90;;;;;;4961465;28;20031;-80
2022/10/01 06:23:06;;;;;;;66.03;61.95;;;17.60;99.90;;;;;;4967864;28;20035;-78
2022/10/01 06:25:33;;;;;;;62.80;59.45;;;17.60;99.90;;;;;;4950870;28;20047;-78
2022/10/01 06:28:00;;;;;;;61.63;58.35;;;17.60;99.90;;;;;;4937261;29;20396;-78
2022/10/01 06:30:28;;;;;;;60.05;56.67;;;17.50;99.90;;;;;;4952198;28;20034;-80
2022/10/01 06:33:03;;;;;;;64.57;61.03;;;17.50;99.90;;;;;;4954351;28;20054;-79
2022/10/01 06:35:30;;;;;;;59.75;56.28;;;17.50;99.90;;;;;;4965244;28;20038;-77
2022/10/01 06:37:56;;;;;;;58.25;54.83;;;17.50;99.90;;;;;;4933576;29;20046;-77
2022/10/01 06:40:23;;;;;;;64.05;60.47;;;17.50;99.90;;;;;;4969011;28;20391;-78
2022/10/01 06:42:49;;;;;;;55.67;52.85;;;17.50;99.90;;;;;;4972245;28;20031;-76
2022/10/01 06:45:18;;;;;;;48.58;46.03;;;17.50;99.90;;;;;;4971727;28;20066;-80
2022/10/01 06:47:44;;;;;;;56.08;52.92;;;17.60;99.90;;;;;;4961714;28;20050;-80
2022/10/01 06:50:10;;;;;;;49.72;47.08;;;17.60;99.90;;;;;;4933262;29;20027;-80
2022/10/01 06:52:48;;;;;;;47.58;44.80;;;17.60;99.90;;;;;;4934465;29;20376;-78
2022/10/01 06:55:19;;;;;;;42.50;40.22;;;17.60;99.90;;;;;;4960918;28;20054;-79
2022/10/01 06:57:45;;;;;;;41.88;39.53;;;17.60;99.90;;;;;;4957351;28;20039;-77
2022/10/01 07:00:12;;;;;;;43.17;41.03;;;17.60;99.90;;;;;;4954992;28;20027;-76
2022/10/01 07:02:39;;;;;;;48.35;45.65;;;17.60;99.90;;;;;;4956147;29;20027;-77
2022/10/01 07:05:06;;;;;;;42.25;39.67;;;17.60;99.90;;;;;;4956652;28;20075;-80
2022/10/01 07:07:34;;;;;;;45.25;42.90;;;17.60;99.90;;;;;;4939527;29;20476;-79
2022/10/01 07:10:00;;;;;;;34.35;32.58;;;17.60;99.90;;;;;;4967207;28;20027;-77
2022/10/01 07:12:27;;;;;;;33.08;31.33;;;17.60;99.90;;;;;;4972376;28;20380;-77
2022/10/01 07:14:53;;;;;;;33.70;31.85;;;17.60;99.90;;;;;;4971311;28;20031;-78
2022/10/01 07:17:20;;;;;;;33.85;31.92;;;17.70;99.90;;;;;;4971943;28;20526;-76
2022/10/01 07:19:46;;;;;;;34.58;32.85;;;17.70;99.90;;;;;;4956663;29;20480;-77
2022/10/01 07:22:12;;;;;;;34.08;32.17;;;17.70;99.90;;;;;;4956932;29;20047;-76
2022/10/01 07:24:38;;;;;;;33.47;31.55;;;17.80;99.90;;;;;;4939764;29;20050;-76
2022/10/01 07:27:04;;;;;;;33.95;32.08;;;17.70;99.90;;;;;;4956520;28;20499;-76
2022/10/01 07:29:30;;;;;;;31.67;29.92;;;17.80;99.90;;;;;;4968285;28;20035;-80
2022/10/01 07:32:00;;;;;;;31.38;29.58;;;17.80;99.90;;;;;;4964230;28;20051;-80
2022/10/01 07:34:26;;;;;;;32.28;30.50;;;17.80;99.90;;;;;;4952012;28;20044;-80
2022/10/01 07:36:55;;;;;;;32.92;31.00;;;17.80;99.90;;;;;;4951999;29;20511;-80
2022/10/01 07:39:21;;;;;;;31.85;30.00;;;17.80;99.90;;;;;;4968668;28;20027;-79
2022/10/01 07:41:50;;;;;;;37.88;35.78;;;17.80;99.90;;;;;;4957122;28;20042;-80
2022/10/01 07:44:17;;;;;;;34.38;32.58;;;17.80;99.90;;;;;;4956307;28;20035;-79
2022/10/01 07:46:43;;;;;;;33.25;31.30;;;17.90;99.90;;;;;;4954898;28;20039;-81
2022/10/01 07:49:09;;;;;;;33.70;31.95;;;17.80;99.90;;;;;;4956098;28;20380;-81
2022/10/01 07:51:35;;;;;;;43.75;41.25;;;17.80;99.90;;;;;;4956354;28;20075;-81
2022/10/01 07:54:02;;;;;;;42.15;39.70;;;17.80;99.90;;;;;;4969966;28;20043;-81
2022/10/01 07:56:28;;;;;;;45.33;42.83;;;17.80;99.90;;;;;;4971038;28;20492;-81
2022/10/01 07:58:55;;;;;;;43.08;40.67;;;17.80;99.90;;;;;;4951224;28;20050;-82
2022/10/01 08:01:21;;;;;;;42.97;40.78;;;17.80;99.90;;;;;;4966011;28;20058;-83
2022/10/01 08:03:49;;;;;;;37.15;35.20;;;17.70;99.90;;;;;;4932303;29;20047;-79
2022/10/01 08:06:16;;;;;;;39.58;37.47;;;17.80;99.90;;;;;;4956514;28;20052;-85
2022/10/01 08:08:43;;;;;;;40.65;38.60;;;17.80;99.90;;;;;;4940247;29;20023;-84
2022/10/01 08:11:12;;;;;;;39.58;37.63;;;17.80;99.90;;;;;;4964651;28;20046;-83
2022/10/01 08:13:38;;;;;;;36.97;35.03;;;17.70;99.90;;;;;;4940141;29;20035;-85
2022/10/01 08:16:05;;;;;;;38.92;36.92;;;17.70;99.90;;;;;;4962121;28;20051;-85
2022/10/01 08:18:31;;;;;;;36.15;34.35;;;17.60;99.90;;;;;;4957154;28;20039;-86
2022/10/01 08:21:00;;;;;;;36.85;35.05;;;17.60;99.90;;;;;;4955229;28;20043;-86
2022/10/01 08:23:27;;;;;;;30.05;28.63;;;17.60;99.90;;;;;;4931717;29;20487;-82
2022/10/01 08:25:58;;;;;;;38.10;36.20;;;17.60;99.90;;;;;;4956957;28;20411;-84
2022/10/01 08:28:24;;;;;;;35.13;33.42;;;17.60;99.90;;;;;;4956907;28;20042;-81
2022/10/01 08:30:50;;;;;;;35.00;33.30;;;17.60;99.90;;;;;;4940759;28;20046;-81
2022/10/01 08:33:16;;;;;;;139.55;38.80;;;17.60;99.90;;;;;;4931756;29;20039;-81
2022/10/01 08:35:43;;;;;;;34.28;32.63;;;17.60;99.90;;;;;;4956276;28;20032;-81
2022/10/01 08:38:09;;;;;;;33.60;31.95;;;17.60;99.90;;;;;;4923770;29;20039;-81
2022/10/01 08:40:41;;;;;;;33.40;31.77;;;17.70;99.90;;;;;;4947769;28;20035;-80
2022/10/01 08:43:18;;;;;;;34.13;32.28;;;17.70;99.90;;;;;;4964710;28;20030;-82
2022/10/01 08:45:50;;;;;;;33.22;31.60;;;17.70;99.90;;;;;;4947049;28;20039;-81
2022/10/01 08:48:34;;;;;;;34.53;32.90;;;17.70;99.90;;;;;;4931815;29;20391;-80
2022/10/01 08:51:08;;;;;;;36.47;34.67;;;17.80;99.90;;;;;;4940030;28;20020;-81
2022/10/01 08:53:40;;;;;;;37.58;35.75;;;17.80;99.90;;;;;;4948603;28;20039;-83
2022/10/01 08:56:07;;;;;;;38.33;36.25;;;17.90;99.90;;;;;;4956017;28;20039;-78
2022/10/01 08:58:42;;;;;;;35.63;33.72;;;17.90;99.90;;;;;;4961375;28;20358;-78
2022/10/01 09:01:10;;;;;;;40.17;38.28;;;18.00;99.90;;;;;;4966347;28;20392;-78
2022/10/01 09:03:36;;;;;;;38.15;36.15;;;18.10;99.90;;;;;;4952948;29;20035;-77
2022/10/01 09:06:08;;;;;;;36.33;34.53;;;18.10;99.90;;;;;;4944157;28;20039;-77
2022/10/01 09:08:44;;;;;;;38.63;36.78;;;18.20;99.90;;;;;;4945396;28;20038;-78
2022/10/01 09:11:47;;;;;;;40.72;38.80;;;18.20;99.90;;;;;;4959679;28;20031;-78
2022/10/01 09:14:19;;;;;;;39.28;37.30;;;18.30;99.90;;;;;;4942435;29;20401;-78
2022/10/01 09:16:54;;;;;;;42.40;40.38;;;18.40;99.90;;;;;;4941642;28;20405;-78
2022/10/01 09:19:53;;;;;;;41.25;39.05;;;18.50;99.90;;;;;;4941051;28;20380;-78
2022/10/01 09:22:37;;;;;;;38.88;37.03;;;18.60;99.90;;;;;;4965252;28;20303;-79
2022/10/01 09:25:18;;;;;;;37.72;35.92;;;18.60;99.90;;;;;;4956764;28;20055;-78
2022/10/01 09:27:44;;;;;;;36.58;34.83;;;18.60;99.90;;;;;;4954699;28;20028;-79
2022/10/01 09:30:13;;;;;;;38.10;36.20;;;18.70;99.90;;;;;;4922009;28;20520;-83
2022/10/01 09:33:12;;;;;;;93.85;89.10;;;19.00;99.90;;;;;;4945030;29;20062;-84
2022/10/01 09:35:45;;;;;;;70.43;67.05;;;19.10;99.90;;;;;;4941885;28;20507;-83
2022/10/01 09:38:19;;;;;;;65.85;62.50;;;19.20;99.90;;;;;;4958960;28;20384;-85
2022/10/01 09:40:53;;;;;;;66.75;63.55;;;19.20;99.90;;;;;;4954954;28;20023;-85
2022/10/01 09:43:25;;;;;;;27.60;26.30;;;19.30;99.90;;;;;;4929547;29;20055;-87
2022/10/01 09:45:51;;;;;;;29.00;27.55;;;19.40;99.90;;;;;;4937571;28;20043;-88
2022/10/01 09:48:26;;;;;;;28.75;27.33;;;19.50;99.90;;;;;;4941843;28;20047;-87
2022/10/01 09:51:03;;;;;;;27.23;25.92;;;19.60;99.90;;;;;;4968031;28;20503;-85
2022/10/01 09:53:45;;;;;;;26.83;25.50;;;19.60;99.60;;;;;;4966928;28;20082;-83
2022/10/01 09:56:16;;;;;;;30.35;28.85;;;19.50;99.50;;;;;;4950871;28;20034;-83
2022/10/01 09:58:44;;;;;;;27.58;26.15;;;19.50;99.50;;;;;;4967792;28;20042;-82
2022/10/01 10:01:19;;;;;;;27.13;25.83;;;19.50;99.40;;;;;;4953143;28;20031;-83
2022/10/01 10:03:53;;;;;;;31.40;29.80;;;19.50;99.60;;;;;;4948357;28;20046;-82
2022/10/01 10:06:27;;;;;;;28.45;27.08;;;19.60;99.80;;;;;;4953181;28;20027;-80
2022/10/01 10:08:54;;;;;;;32.17;30.65;;;19.70;99.90;;;;;;4954128;28;20024;-80
2022/10/01 10:11:22;;;;;;;31.65;30.15;;;19.70;99.90;;;;;;4952791;28;20416;-79
2022/10/01 10:13:50;;;;;;;34.42;32.72;;;19.70;99.10;;;;;;4933597;29;20381;-80
2022/10/01 10:16:17;;;;;;;31.02;29.50;;;19.70;99.00;;;;;;4932524;28;20042;-80
2022/10/01 10:18:47;;;;;;;36.00;34.17;;;19.70;99.40;;;;;;4939637;29;20031;-80
2022/10/01 10:21:16;;;;;;;41.55;39.28;;;19.80;99.40;;;;;;4949096;28;20039;-81
2022/10/01 10:23:50;;;;;;;40.85;38.75;;;19.80;99.20;;;;;;4967729;28;20384;-80
2022/10/01 10:26:19;;;;;;;39.70;37.78;;;19.90;99.20;;;;;;4937326;29;20035;-81
2022/10/01 10:28:46;;;;;;;36.70;34.83;;;20.10;99.30;;;;;;4941742;28;20039;-81
2022/10/01 10:31:14;;;;;;;31.45;29.85;;;20.20;98.10;;;;;;4947822;28;20080;-81
2022/10/01 10:34:12;;;;;;;36.15;34.20;;;20.20;97.50;;;;;;4940743;29;20416;-79
2022/10/01 10:36:39;;;;;;;30.88;29.10;;;20.10;97.50;;;;;;4927094;29;20051;-79
2022/10/01 10:39:06;;;;;;;43.42;41.08;;;20.00;97.00;;;;;;4929932;29;20425;-81
2022/10/01 10:41:32;;;;;;;46.78;44.22;;;19.80;97.50;;;;;;4932053;29;20054;-80
2022/10/01 10:44:03;;;;;;;42.13;40.10;;;19.80;98.00;;;;;;4912759;29;20040;-79
2022/10/01 10:46:31;;;;;;;38.60;36.60;;;19.70;97.50;;;;;;4900199;29;20071;-80
2022/10/01 10:49:05;;;;;;;36.65;34.85;;;19.60;98.00;;;;;;4935618;29;20027;-81
2022/10/01 10:51:54;;;;;;;35.95;34.05;;;19.60;98.30;;;;;;4920310;29;20063;-81
2022/10/01 10:54:32;;;;;;;33.03;31.33;;;19.60;97.90;;;;;;4932595;29;20051;-86
2022/10/01 10:57:04;;;;;;;34.45;32.75;;;19.60;97.90;;;;;;4927982;29;20039;-85
2022/10/01 10:59:32;;;;;;;35.58;33.67;;;19.60;97.80;;;;;;4926931;29;20028;-83
2022/10/01 11:02:07;;;;;;;35.95;33.95;;;19.60;97.90;;;;;;4915453;29;20035;-83
2022/10/01 11:04:40;;;;;;;33.83;32.10;;;19.60;97.90;;;;;;4931932;29;20160;-83
2022/10/01 11:07:06;;;;;;;35.58;33.63;;;19.60;97.80;;;;;;4932238;29;20098;-83
2022/10/01 11:10:05;;;;;;;25.17;23.75;;;19.70;97.70;;;;;;4912082;29;20046;-83
2022/10/01 11:12:46;;;;;;;24.58;23.17;;;19.60;98.20;;;;;;4934096;29;20039;-84
2022/10/01 11:15:28;;;;;;;45.47;42.92;;;19.60;98.70;;;;;;4947929;28;20038;-84
2022/10/01 11:18:23;;;;;;;55.75;53.00;;;19.70;98.90;;;;;;4940659;28;20031;-84
2022/10/01 11:21:30;;;;;;;67.90;64.60;;;19.70;99.40;;;;;;4964065;28;20520;-83
2022/10/01 11:24:03;;;;;;;64.10;60.83;;;19.60;99.40;;;;;;4942325;28;20051;-81
2022/10/01 11:26:36;;;;;;;72.70;69.10;;;19.60;99.40;;;;;;4966401;28;20051;-83
2022/10/01 11:29:08;;;;;;;66.47;62.97;;;19.60;99.30;;;;;;4951397;28;20384;-83
2022/10/01 11:31:45;;;;;;;60.15;56.97;;;19.60;99.40;;;;;;4949844;28;20035;-84
2022/10/01 11:34:19;;;;;;;80.68;76.63;;;19.60;99.50;;;;;;4949865;28;20035;-80
2022/10/01 11:37:02;;;;;;;62.90;59.55;;;19.60;99.60;;;;;;4953324;28;20365;-80
2022/10/01 11:39:28;;;;;;;58.63;55.55;;;19.60;99.70;;;;;;4934032;29;20044;-80
2022/10/01 11:42:09;;;;;;;57.47;54.45;;;19.60;99.60;;;;;;4959296;28;20039;-80
2022/10/01 11:44:42;;;;;;;53.85;51.00;;;19.70;99.70;;;;;;4953962;28;20032;-81
2022/10/01 11:47:19;;;;;;;69.07;65.50;;;19.70;99.70;;;;;;4967168;28;20031;-80
2022/10/01 11:49:46;;;;;;;99.70;94.50;;;19.70;99.90;;;;;;4966672;28;20046;-81
2022/10/01 11:52:25;;;;;;;92.25;87.65;;;19.70;99.70;;;;;;4969184;28;20043;-80
2022/10/01 12:01:10;;;;;;;60.30;57.25;;;19.60;99.50;;;;;;4958010;28;20039;-80
2022/10/01 12:03:48;;;;;;;40.15;38.05;;;19.70;99.90;;;;;;4944210;28;20044;-81
2022/10/01 12:06:14;;;;;;;30.73;29.10;;;19.80;99.70;;;;;;4935327;29;20056;-80
2022/10/01 12:08:41;;;;;;;33.25;31.50;;;19.80;99.00;;;;;;4964781;28;20388;-80
2022/10/01 12:11:17;;;;;;;35.78;33.95;;;19.90;99.20;;;;;;4970418;28;20100;-81
2022/10/01 12:13:54;;;;;;;39.05;36.83;;;20.00;99.30;;;;;;4930829;28;20039;-80
2022/10/01 12:16:32;;;;;;;45.20;43.03;;;20.10;99.10;;;;;;4960584;28;20035;-80
2022/10/01 12:19:09;;;;;;;41.90;39.53;;;20.10;98.50;;;;;;4968676;28;20035;-80
2022/10/01 12:21:41;;;;;;;48.35;45.90;;;20.20;98.30;;;;;;4970071;28;20058;-80
2022/10/01 12:24:13;;;;;;;53.88;51.15;;;20.20;98.30;;;;;;4968275;28;20039;-81
2022/10/01 12:26:52;;;;;;;46.45;44.13;;;20.20;98.20;;;;;;4965530;28;20043;-80
2022/10/01 12:29:26;;;;;;;47.13;44.75;;;20.20;97.80;;;;;;4953782;28;20035;-80
2022/10/01 12:32:00;;;;;;;42.95;40.83;;;20.20;97.90;;;;;;4954357;28;20059;-80
2022/10/01 12:34:32;;;;;;;46.20;43.80;;;20.10;97.60;;;;;;4966890;28;20039;-80
2022/10/01 12:37:11;;;;;;;32.08;30.30;;;20.10;97.50;;;;;;4953087;28;20380;-80
2022/10/01 12:40:16;;;;;;;47.25;44.83;;;20.00;97.80;;;;;;4965739;28;20027;-80
2022/10/01 12:42:51;;;;;;;37.10;35.17;;;20.10;97.80;;;;;;4936932;29;20440;-80
2022/10/01 12:45:29;;;;;;;36.70;34.63;;;20.10;97.30;;;;;;4915703;29;20163;-80
2022/10/01 12:48:19;;;;;;;38.40;36.50;;;20.00;96.90;;;;;;4915756;29;20528;-80
2022/10/01 12:51:01;;;;;;;43.33;41.20;;;20.00;96.70;;;;;;4917422;29;20043;-80